Time;durP1;ratioP1;P1;durP2;ratioP2;P2;SDS_P1;SDS_P2;PMS_P1;PMS_P2;Temp;Humidity;BMP_temperature;BMP_pressure;BME280_temperature;BME280_humidity;BME280_pressure;Samples;Min_cycle;Max_cycle;Signal;HPM_P1;HPM_P2
2021/10/27 00:02:10;;;;;;;1.38;0.80;;;;;;;-149.78;100.00;50330.63;5066440;28;20040;-68
2021/10/27 00:04:36;;;;;;;3.00;0.82;;;;;;;-149.78;100.00;50291.50;5061646;28;20037;-68
2021/10/27 00:07:02;;;;;;;2.42;1.05;;;;;;;-149.78;100.00;50330.63;5062434;28;20044;-68
2021/10/27 00:09:28;;;;;;;2.80;0.88;;;;;;;-149.78;100.00;50275.88;5063808;28;20469;-68
2021/10/27 00:11:54;;;;;;;3.53;1.00;;;;;;;-149.78;100.00;50314.97;5060753;28;20024;-68
2021/10/27 00:14:20;;;;;;;3.80;1.05;;;;;;;-149.78;100.00;50326.72;5056481;28;20404;-68
2021/10/27 00:16:48;;;;;;;3.58;0.90;;;;;;;-149.78;100.00;50311.06;5059180;28;20476;-69
2021/10/27 00:19:14;;;;;;;4.13;1.10;;;;;;;-149.78;100.00;50314.97;5060343;28;20025;-68
2021/10/27 00:21:40;;;;;;;3.97;1.08;;;;;;;-149.78;100.00;50291.50;5054234;28;20033;-67
2021/10/27 00:24:05;;;;;;;1.13;0.70;;;;;;;-149.78;100.00;50295.44;5058132;28;20607;-68
2021/10/27 00:26:31;;;;;;;2.55;0.88;;;;;;;-149.78;100.00;50326.72;5057568;28;20033;-68
2021/10/27 00:28:57;;;;;;;3.53;0.93;;;;;;;-149.78;100.00;50307.16;5056027;28;20472;-69
2021/10/27 00:31:23;;;;;;;1.13;0.60;;;;;;;-149.78;100.00;50313.03;5057142;28;20035;-68
2021/10/27 00:33:51;;;;;;;2.22;0.90;;;;;;;-149.78;100.00;50291.50;5071723;28;20389;-69
2021/10/27 00:36:18;;;;;;;1.17;0.75;;;;;;;-149.78;100.00;50295.44;5054322;28;20040;-68
2021/10/27 00:38:43;;;;;;;1.08;0.70;;;;;;;-149.78;100.00;50307.16;5053141;28;20036;-68
2021/10/27 00:41:10;;;;;;;1.77;0.70;;;;;;;-149.78;100.00;50326.72;5061115;28;20476;-68
2021/10/27 00:43:37;;;;;;;2.60;1.63;;;;;;;-149.78;100.00;50330.63;5060119;28;20468;-68
2021/10/27 00:46:03;;;;;;;3.72;0.80;;;;;;;-149.78;100.00;50295.44;5077288;28;20064;-67
2021/10/27 00:48:29;;;;;;;1.58;0.80;;;;;;;-149.78;100.00;50346.28;5063872;28;20056;-67
2021/10/27 00:50:54;;;;;;;2.78;0.88;;;;;;;-149.78;100.00;50291.50;5056803;28;20083;-68
2021/10/27 00:53:20;;;;;;;3.45;1.23;;;;;;;-149.78;100.00;50322.81;5065131;28;20052;-68
2021/10/27 00:55:47;;;;;;;2.20;1.30;;;;;;;-149.78;100.00;50320.84;5063416;28;20040;-68
2021/10/27 00:58:13;;;;;;;2.85;0.80;;;;;;;-149.78;100.00;50322.81;5059334;28;20439;-68
2021/10/27 01:00:40;;;;;;;2.90;0.80;;;;;;;-149.78;100.00;50322.81;5069037;28;20033;-67
2021/10/27 01:03:07;;;;;;;2.00;0.98;;;;;;;-149.78;100.00;50328.69;5067639;28;20029;-68
2021/10/27 01:05:33;;;;;;;2.75;1.10;;;;;;;-149.78;100.00;50330.63;5062879;28;20032;-68
2021/10/27 01:07:59;;;;;;;1.48;0.90;;;;;;;-149.78;100.00;50326.72;5057434;28;20103;-68
2021/10/27 01:10:25;;;;;;;3.50;0.95;;;;;;;-149.78;100.00;50334.53;5055808;28;20036;-67
2021/10/27 01:12:51;;;;;;;1.88;0.85;;;;;;;-149.78;100.00;50330.63;5053814;28;20025;-67
2021/10/27 01:15:18;;;;;;;6.15;1.00;;;;;;;-149.78;100.00;50291.50;5055352;28;20555;-69
2021/10/27 01:17:44;;;;;;;2.03;0.82;;;;;;;-149.78;100.00;50291.50;5063288;28;20037;-68
2021/10/27 01:20:10;;;;;;;2.30;0.88;;;;;;;-149.78;100.00;50320.84;5062968;28;20460;-68
2021/10/27 01:22:39;;;;;;;3.20;0.85;;;;;;;-149.78;100.00;50322.81;5058694;28;20128;-68
2021/10/27 01:25:08;;;;;;;2.35;0.73;;;;;;;-149.78;100.00;50289.56;5054806;28;20040;-68
2021/10/27 01:27:42;;;;;;;0.60;0.55;;;;;;;-149.78;100.00;50324.75;5053262;28;20056;-68
2021/10/27 01:30:14;;;;;;;1.65;0.80;;;;;;;-149.78;100.00;50287.59;5058687;28;20033;-69
2021/10/27 01:32:40;;;;;;;;;;;;;;;-149.78;100.00;50334.53;5064562;28;20472;-68
2021/10/27 01:35:07;;;;;;;1.77;0.70;;;;;;;-149.78;100.00;50334.53;5053766;28;19913;-68
2021/10/27 01:37:35;;;;;;;1.55;0.55;;;;;;;-149.78;100.00;50313.03;5057281;28;20040;-68
2021/10/27 01:40:01;;;;;;;1.00;0.73;;;;;;;-149.78;100.00;50301.28;5060799;28;20369;-68
2021/10/27 01:42:27;;;;;;;2.90;0.75;;;;;;;-149.78;100.00;50328.69;5061527;28;20051;-68
2021/10/27 01:44:52;;;;;;;1.80;0.70;;;;;;;-149.78;100.00;50311.06;5059565;28;20060;-68
2021/10/27 01:47:19;;;;;;;1.98;0.70;;;;;;;-149.78;100.00;50340.41;5057154;28;20033;-68
2021/10/27 01:49:45;;;;;;;1.23;0.80;;;;;;;-149.78;100.00;50326.72;5057114;28;20044;-68
2021/10/27 01:52:11;;;;;;;4.95;1.20;;;;;;;-149.78;100.00;50358.00;5053520;28;20037;-68
2021/10/27 01:54:37;;;;;;;3.13;0.88;;;;;;;-149.78;100.00;50285.66;5057593;28;20602;-68
2021/10/27 01:57:06;;;;;;;4.93;1.13;;;;;;;-149.78;100.00;50350.19;5053466;28;20043;-68
2021/10/27 01:59:33;;;;;;;2.35;1.55;;;;;;;-149.78;100.00;50313.03;5059328;28;20035;-68
2021/10/27 02:01:59;;;;;;;5.20;0.77;;;;;;;-149.78;100.00;50307.16;5050898;28;20032;-68
2021/10/27 02:04:24;;;;;;;6.18;0.90;;;;;;;-149.78;100.00;50318.91;5061589;28;20504;-68
2021/10/27 02:06:50;;;;;;;3.40;0.95;;;;;;;-149.78;100.00;50330.63;5060577;28;20457;-68
2021/10/27 02:09:16;;;;;;;1.77;0.65;;;;;;;-149.78;100.00;50330.63;5063584;28;20033;-68
2021/10/27 02:11:42;;;;;;;4.63;1.02;;;;;;;-149.78;100.00;50330.63;5056525;28;20052;-68
2021/10/27 02:14:08;;;;;;;1.92;0.88;;;;;;;-149.78;100.00;50299.34;5060610;28;20029;-66
2021/10/27 02:16:34;;;;;;;6.07;1.00;;;;;;;-149.78;100.00;50330.63;5051632;28;20484;-67
2021/10/27 02:18:59;;;;;;;2.38;1.00;;;;;;;-149.78;100.00;50299.34;5053288;28;20056;-68
2021/10/27 02:21:25;;;;;;;3.20;0.88;;;;;;;-149.78;100.00;50311.06;5063158;28;20036;-68
2021/10/27 02:23:51;;;;;;;2.65;0.70;;;;;;;-149.78;100.00;50279.78;5062556;28;20037;-68
2021/10/27 02:26:18;;;;;;;1.85;1.02;;;;;;;-149.78;100.00;50311.06;5065135;28;20086;-67
2021/10/27 02:28:44;;;;;;;4.55;1.30;;;;;;;-149.78;100.00;50299.34;5066714;28;20098;-68
2021/10/27 02:31:10;;;;;;;3.85;0.98;;;;;;;-149.78;100.00;50334.53;5055213;28;20522;-68
2021/10/27 02:33:36;;;;;;;1.33;0.70;;;;;;;-149.78;100.00;50322.81;5051873;28;20029;-68
2021/10/27 02:36:03;;;;;;;1.98;1.10;;;;;;;-149.78;100.00;50330.63;5062474;28;20476;-68
2021/10/27 02:38:28;;;;;;;3.17;0.90;;;;;;;-149.78;100.00;50314.97;5057120;28;20077;-68
2021/10/27 02:40:54;;;;;;;3.30;1.20;;;;;;;-149.78;100.00;50324.75;5069302;28;20036;-68
2021/10/27 02:43:20;;;;;;;3.80;1.13;;;;;;;-149.78;100.00;50277.81;5073354;28;20028;-67
2021/10/27 02:45:46;;;;;;;2.67;1.05;;;;;;;-149.78;100.00;50307.16;5065677;28;20037;-68
2021/10/27 02:48:13;;;;;;;3.60;1.27;;;;;;;-149.78;100.00;50307.16;5063482;28;20035;-68
2021/10/27 02:50:40;;;;;;;2.70;1.02;;;;;;;-149.78;100.00;50291.50;5071872;28;20043;-68
2021/10/27 02:53:06;;;;;;;3.45;1.40;;;;;;;-149.78;100.00;50318.91;5069444;28;20143;-68
2021/10/27 02:55:33;;;;;;;3.38;1.52;;;;;;;-149.78;100.00;50313.03;5065521;28;20035;-69
2021/10/27 02:58:00;;;;;;;4.38;1.13;;;;;;;-149.78;100.00;50342.38;5063239;28;20094;-68
2021/10/27 03:00:27;;;;;;;4.85;1.40;;;;;;;-149.78;100.00;50342.38;5064730;28;20025;-68
2021/10/27 03:02:54;;;;;;;2.97;1.23;;;;;;;-149.78;100.00;50326.72;5063666;28;20036;-68
2021/10/27 03:05:23;;;;;;;2.33;1.42;;;;;;;-149.78;100.00;50328.69;5072659;28;20471;-69
2021/10/27 03:07:49;;;;;;;2.95;1.10;;;;;;;-149.78;100.00;50303.25;5069710;28;20120;-68
2021/10/27 03:10:17;;;;;;;3.92;1.52;;;;;;;-149.78;100.00;50309.13;5071116;28;20028;-68
2021/10/27 03:12:43;;;;;;;8.40;1.60;;;;;;;-149.78;100.00;50322.81;5061613;28;20037;-68
2021/10/27 03:15:10;;;;;;;3.63;1.20;;;;;;;-149.78;100.00;50330.63;5070672;28;20067;-68
2021/10/27 03:17:35;;;;;;;3.90;1.20;;;;;;;-149.78;100.00;50291.50;5068379;28;20097;-69
2021/10/27 03:20:03;;;;;;;2.88;1.17;;;;;;;-149.78;100.00;50336.50;5061894;28;20423;-68
2021/10/27 03:22:29;;;;;;;2.17;1.17;;;;;;;-149.78;100.00;50326.72;5069803;28;20025;-67
2021/10/27 03:24:55;;;;;;;4.32;1.38;;;;;;;-149.78;100.00;50252.41;5068947;28;20507;-68
2021/10/27 03:27:20;;;;;;;2.03;1.00;;;;;;;-149.78;100.00;50299.34;5073041;28;20119;-68
2021/10/27 03:29:46;;;;;;;1.88;1.10;;;;;;;-149.78;100.00;50303.25;5075826;28;20044;-67
2021/10/27 03:32:13;;;;;;;1.70;1.23;;;;;;;-149.78;100.00;50279.78;5075001;28;20049;-68
2021/10/27 03:34:41;;;;;;;3.80;1.75;;;;;;;-149.78;100.00;50291.50;5054609;28;20107;-68
2021/10/27 03:37:07;;;;;;;4.53;1.63;;;;;;;-149.78;100.00;50311.06;5060298;28;20135;-67
2021/10/27 03:39:34;;;;;;;4.13;1.52;;;;;;;-149.78;100.00;50334.53;5066618;28;20079;-68
2021/10/27 03:42:00;;;;;;;2.72;1.98;;;;;;;-149.78;100.00;50311.06;5062396;28;20039;-68
2021/10/27 03:44:26;;;;;;;2.97;1.50;;;;;;;-149.78;100.00;50314.97;5076325;28;20476;-67
2021/10/27 03:46:52;;;;;;;1.83;1.38;;;;;;;-149.78;100.00;50271.97;5063539;28;20039;-68
2021/10/27 03:49:19;;;;;;;3.10;1.55;;;;;;;-149.78;100.00;50322.81;5060193;28;20032;-68
2021/10/27 03:51:46;;;;;;;2.85;1.40;;;;;;;-149.78;100.00;50324.75;5072779;28;20032;-67
2021/10/27 03:54:14;;;;;;;3.70;2.65;;;;;;;-149.78;100.00;50283.69;5061436;28;20523;-67
2021/10/27 03:56:40;;;;;;;3.45;1.20;;;;;;;-149.78;100.00;50358.00;5056821;28;20380;-67
2021/10/27 03:59:06;;;;;;;3.65;1.45;;;;;;;-149.78;100.00;50326.72;5066856;28;20032;-68
2021/10/27 04:01:32;;;;;;;2.42;1.45;;;;;;;-149.78;100.00;50354.09;5055161;28;20103;-68
2021/10/27 04:03:57;;;;;;;7.90;1.65;;;;;;;-149.78;100.00;50328.69;5071624;28;20029;-68
2021/10/27 04:06:23;;;;;;;4.35;1.50;;;;;;;-149.78;100.00;50324.75;5063578;28;20377;-68
2021/10/27 04:08:50;;;;;;;3.47;1.60;;;;;;;-149.78;100.00;50313.03;5061848;28;20179;-68
2021/10/27 04:11:15;;;;;;;3.05;1.55;;;;;;;-149.78;100.00;50336.50;5055706;28;20033;-68
2021/10/27 04:13:41;;;;;;;6.57;1.25;;;;;;;-149.78;100.00;50336.50;5062560;28;20120;-68
2021/10/27 04:16:07;;;;;;;3.60;1.38;;;;;;;-149.78;100.00;50346.28;5060906;28;20021;-67
2021/10/27 04:18:33;;;;;;;6.63;1.95;;;;;;;-149.78;100.00;50326.72;5063894;28;20033;-68
2021/10/27 04:20:59;;;;;;;2.78;1.25;;;;;;;-149.78;100.00;50291.50;5054742;28;20094;-68
2021/10/27 04:23:25;;;;;;;2.83;1.40;;;;;;;-149.78;100.00;50354.09;5062412;28;20025;-68
2021/10/27 04:25:50;;;;;;;4.60;1.20;;;;;;;-149.78;100.00;50309.13;5060369;28;20380;-68
2021/10/27 04:28:16;;;;;;;2.65;1.20;;;;;;;-149.78;100.00;50350.19;5061292;28;20033;-69
2021/10/27 04:30:41;;;;;;;3.78;1.30;;;;;;;-149.78;100.00;50350.19;5060189;28;20465;-68
2021/10/27 04:33:33;;;;;;;5.38;1.10;;;;;;;-149.78;100.00;50350.19;5056266;28;20035;-68
2021/10/27 04:35:59;;;;;;;2.80;1.10;;;;;;;-149.78;100.00;50334.53;5074783;28;20040;-68
2021/10/27 04:38:25;;;;;;;1.33;0.80;;;;;;;-149.78;100.00;50373.66;5065111;28;20399;-68
2021/10/27 04:40:51;;;;;;;4.97;1.17;;;;;;;-149.78;100.00;50334.53;5058004;28;20040;-68
2021/10/27 04:43:16;;;;;;;3.70;0.90;;;;;;;-149.78;100.00;50303.25;5055962;28;20488;-68
2021/10/27 04:45:42;;;;;;;3.90;0.90;;;;;;;-149.78;100.00;50326.72;5056220;28;20036;-68
2021/10/27 04:48:10;;;;;;;5.80;1.10;;;;;;;-149.78;100.00;50299.34;5066802;28;20033;-68
2021/10/27 04:50:36;;;;;;;2.58;0.80;;;;;;;-149.78;100.00;50326.72;5058957;28;20089;-68
2021/10/27 04:53:02;;;;;;;1.27;1.00;;;;;;;-149.78;100.00;50314.97;5060745;28;20454;-68
2021/10/27 04:55:27;;;;;;;2.78;0.90;;;;;;;-149.78;100.00;50295.44;5065868;28;20116;-68
2021/10/27 04:57:53;;;;;;;2.80;1.00;;;;;;;-149.78;100.00;50307.16;5051748;28;21617;-67
2021/10/27 05:00:19;;;;;;;2.50;0.77;;;;;;;-149.78;100.00;50313.03;5043196;28;20495;-67
2021/10/27 05:02:44;;;;;;;1.92;0.80;;;;;;;-149.78;100.00;50307.16;5052974;28;20063;-67
2021/10/27 05:05:11;;;;;;;2.40;0.70;;;;;;;-149.78;100.00;50307.16;5054274;28;20036;-68
2021/10/27 05:07:37;;;;;;;1.55;0.82;;;;;;;-149.78;100.00;50299.34;5060996;28;20033;-67
2021/10/27 05:10:03;;;;;;;1.40;0.80;;;;;;;-149.78;100.00;50305.22;5060974;28;20123;-67
2021/10/27 05:12:29;;;;;;;2.47;0.93;;;;;;;-149.78;100.00;50330.63;5055309;28;20025;-67
2021/10/27 05:14:55;;;;;;;3.28;0.93;;;;;;;-149.78;100.00;50338.44;5055057;28;20491;-68
2021/10/27 05:17:21;;;;;;;3.83;1.00;;;;;;;-149.78;100.00;50307.16;5071732;28;20384;-68
2021/10/27 05:19:47;;;;;;;1.05;0.77;;;;;;;-149.78;100.00;50279.78;5059567;28;20380;-68
2021/10/27 05:22:15;;;;;;;1.35;0.77;;;;;;;-149.78;100.00;50342.38;5061233;28;20040;-68
2021/10/27 05:24:42;;;;;;;2.55;1.20;;;;;;;-149.78;100.00;50314.97;5060725;28;20041;-68
2021/10/27 05:27:09;;;;;;;3.40;0.80;;;;;;;-149.78;100.00;50322.81;5070105;28;20025;-67
2021/10/27 05:29:35;;;;;;;3.50;0.90;;;;;;;-149.78;100.00;50301.28;5070517;28;20032;-68
2021/10/27 05:32:01;;;;;;;3.13;0.98;;;;;;;-149.78;100.00;50303.25;5062276;28;20033;-67
2021/10/27 05:34:27;;;;;;;1.77;0.90;;;;;;;-149.78;100.00;50322.81;5071704;28;20472;-68
2021/10/27 05:36:53;;;;;;;5.07;1.88;;;;;;;-149.78;100.00;50342.38;5069184;28;20070;-68
2021/10/27 05:39:19;;;;;;;1.33;0.80;;;;;;;-149.78;100.00;50313.03;5069396;28;20049;-68
2021/10/27 05:41:47;;;;;;;2.03;0.82;;;;;;;-149.78;100.00;50295.44;5069396;28;20081;-68
2021/10/27 05:44:13;;;;;;;3.25;0.90;;;;;;;-149.78;100.00;50361.91;5067983;28;20028;-67
2021/10/27 05:46:41;;;;;;;3.22;0.98;;;;;;;-149.78;100.00;50322.81;5067590;28;20043;-67
2021/10/27 05:49:17;;;;;;;2.85;0.85;;;;;;;-149.78;100.00;50295.44;5061163;28;20024;-68
2021/10/27 05:51:46;;;;;;;2.05;0.90;;;;;;;-149.78;100.00;50322.81;5065025;28;20083;-68
2021/10/27 05:56:56;;;;;;;2.22;0.90;;;;;;;-149.78;100.00;50314.97;5057942;28;20025;-67
2021/10/27 05:59:22;;;;;;;3.70;1.13;;;;;;;-149.78;100.00;50342.38;5053582;28;20052;-68
2021/10/27 06:01:48;;;;;;;3.20;1.10;;;;;;;-149.78;100.00;50303.25;5065556;28;20037;-67
2021/10/27 06:04:17;;;;;;;3.72;1.10;;;;;;;-149.78;100.00;50309.13;5053611;28;20037;-68
2021/10/27 06:06:44;;;;;;;2.47;0.98;;;;;;;-149.78;100.00;50326.72;5071143;28;20044;-68
2021/10/27 06:09:09;;;;;;;1.83;0.90;;;;;;;-149.78;100.00;50314.97;5066406;28;20045;-68
2021/10/27 06:11:36;;;;;;;4.20;0.93;;;;;;;-149.78;100.00;50295.44;5055906;28;20037;-68
2021/10/27 06:14:02;;;;;;;3.33;1.15;;;;;;;-149.78;100.00;50307.16;5053309;28;20469;-68
2021/10/27 06:16:28;;;;;;;2.00;1.00;;;;;;;-149.78;100.00;50287.59;5063496;28;20031;-68
2021/10/27 06:18:55;;;;;;;4.05;1.00;;;;;;;-149.78;100.00;50311.06;5057160;28;20087;-67
2021/10/27 06:21:21;;;;;;;2.50;0.95;;;;;;;-149.78;100.00;50330.63;5059567;28;20126;-67
2021/10/27 06:23:48;;;;;;;2.75;1.00;;;;;;;-149.78;100.00;50307.16;5054570;28;20029;-67
2021/10/27 06:26:18;;;;;;;1.27;0.95;;;;;;;-149.78;100.00;50326.72;5063801;28;20467;-67
2021/10/27 06:28:58;;;;;;;1.27;0.90;;;;;;;-149.78;100.00;50334.53;5064981;28;20035;-66
2021/10/27 06:31:37;;;;;;;1.85;1.08;;;;;;;-149.78;100.00;50305.22;5049954;28;20032;-66
2021/10/27 06:47:26;;;;;;;3.70;1.40;;;;;;;-149.78;100.00;50340.41;5061880;28;20041;-67
2021/10/27 06:49:52;;;;;;;2.92;1.38;;;;;;;-149.78;100.00;50354.09;5058208;28;20107;-68
2021/10/27 06:52:18;;;;;;;2.55;1.45;;;;;;;-149.78;100.00;50314.97;5062897;28;20166;-68
2021/10/27 06:54:48;;;;;;;4.53;1.52;;;;;;;-149.78;100.00;50361.91;5053509;28;20052;-68
2021/10/27 06:57:17;;;;;;;4.67;1.73;;;;;;;-149.78;100.00;50314.97;5055671;28;20540;-68
2021/10/27 06:59:43;;;;;;;5.63;1.95;;;;;;;-149.78;100.00;50322.81;5065909;28;20032;-68
2021/10/27 07:16:01;;;;;;;3.30;1.77;;;;;;;-149.78;100.00;50324.75;5062885;28;20107;-70
2021/10/27 07:18:27;;;;;;;6.28;1.90;;;;;;;-149.78;100.00;50348.22;5054312;28;20052;-74
2021/10/27 07:20:52;;;;;;;2.90;1.77;;;;;;;-149.78;100.00;50330.63;5063056;28;20056;-73
2021/10/27 07:23:19;;;;;;;3.13;1.77;;;;;;;-149.78;100.00;50307.16;5062285;28;20037;-72
2021/10/27 07:25:47;;;;;;;3.08;2.13;;;;;;;-149.78;100.00;50314.97;5053564;28;20033;-72
2021/10/27 07:28:14;;;;;;;2.20;1.60;;;;;;;-149.78;100.00;50373.66;5045475;28;20028;-71
2021/10/27 07:30:41;;;;;;;3.50;1.80;;;;;;;-149.78;100.00;50336.50;5065475;28;20032;-73
2021/10/27 07:33:07;;;;;;;6.00;1.90;;;;;;;-149.78;100.00;50346.28;5058892;28;20029;-73
2021/10/27 07:35:47;;;;;;;2.80;2.22;;;;;;;-149.78;100.00;50346.28;5062691;28;20484;-73
2021/10/27 07:40:59;;;;;;;6.75;1.75;;;;;;;-149.78;100.00;50354.09;5065707;28;20039;-74
2021/10/27 07:43:28;;;;;;;4.20;2.00;;;;;;;-149.78;100.00;50338.44;5070062;28;20071;-72
2021/10/27 07:45:54;;;;;;;5.35;1.80;;;;;;;-149.78;100.00;50334.53;5067999;28;20043;-74
2021/10/27 07:48:20;;;;;;;3.30;1.80;;;;;;;-149.78;100.00;50330.63;5067157;28;20024;-75
2021/10/27 07:50:47;;;;;;;2.85;1.70;;;;;;;-149.78;100.00;50348.22;5068134;28;20034;-75
2021/10/27 07:53:14;;;;;;;3.80;1.70;;;;;;;-149.78;100.00;50328.69;5049127;28;20471;-74
2021/10/27 07:55:42;;;;;;;4.15;1.45;;;;;;;-149.78;100.00;50342.38;5065031;28;20538;-74
2021/10/27 07:58:12;;;;;;;3.90;1.52;;;;;;;-149.78;100.00;50322.81;5060316;28;20112;-74
2021/10/27 08:00:39;;;;;;;5.22;1.65;;;;;;;-149.78;100.00;50330.63;5058828;28;20041;-75
2021/10/27 08:03:04;;;;;;;2.38;1.27;;;;;;;-149.78;100.00;50322.81;5059311;28;20075;-74
2021/10/27 08:05:40;;;;;;;3.05;1.58;;;;;;;-149.78;100.00;50311.06;5067985;28;20033;-74
2021/10/27 08:08:08;;;;;;;8.88;1.48;;;;;;;-149.78;100.00;50313.03;5060148;28;20029;-73
2021/10/27 08:10:34;;;;;;;2.38;2.03;;;;;;;-149.78;100.00;50358.00;5064379;28;20036;-73
2021/10/27 08:13:00;;;;;;;3.70;1.73;;;;;;;-149.78;100.00;50322.81;5059454;28;20037;-75
2021/10/27 08:15:27;;;;;;;2.78;1.33;;;;;;;-149.78;100.00;50322.81;5059109;28;20043;-72
2021/10/27 08:17:53;;;;;;;5.03;1.60;;;;;;;-149.78;100.00;50350.19;5061211;28;20043;-71
2021/10/27 08:20:23;;;;;;;3.78;1.63;;;;;;;-149.78;100.00;50352.16;5058781;28;20033;-74
2021/10/27 08:22:54;;;;;;;3.15;1.50;;;;;;;-149.78;100.00;50311.06;5058421;28;20029;-74
2021/10/27 08:25:44;;;;;;;4.32;1.70;;;;;;;-149.78;100.00;50314.97;5054519;28;20036;-72
2021/10/27 08:28:12;;;;;;;2.47;1.40;;;;;;;-149.78;100.00;50334.53;5064085;28;20037;-76
2021/10/27 08:33:08;;;;;;;4.80;1.58;;;;;;;-149.78;100.00;50311.06;5063194;28;20024;-71
2021/10/27 08:35:36;;;;;;;6.95;1.85;;;;;;;-149.78;100.00;50299.34;5064416;28;20028;-71
2021/10/27 08:38:03;;;;;;;2.65;1.50;;;;;;;-149.78;100.00;50305.22;5061345;28;20040;-73
2021/10/27 08:40:29;;;;;;;7.57;1.85;;;;;;;-149.78;100.00;50314.97;5065726;28;20487;-73
2021/10/27 08:42:59;;;;;;;1.98;1.67;;;;;;;-149.78;100.00;50303.25;5063070;28;20369;-73
2021/10/27 08:45:27;;;;;;;4.15;1.63;;;;;;;-149.78;100.00;50320.84;5065897;28;20033;-75
2021/10/27 08:47:54;;;;;;;3.00;1.60;;;;;;;-149.78;100.00;50307.16;5063920;28;20043;-76
2021/10/27 08:50:22;;;;;;;5.18;1.77;;;;;;;-149.78;100.00;50279.78;5066897;28;20083;-74
2021/10/27 08:52:49;;;;;;;2.00;1.27;;;;;;;-149.78;100.00;50314.97;5064172;28;20061;-76
2021/10/27 08:55:15;;;;;;;3.50;1.98;;;;;;;-149.78;100.00;50293.47;5053634;28;20028;-75
2021/10/27 08:57:46;;;;;;;3.90;1.50;;;;;;;-149.78;100.00;50268.03;5065398;28;20060;-75
2021/10/27 09:08:22;;;;;;;1.75;1.20;;;;;;;-149.78;100.00;50287.59;5060371;28;20040;-74
2021/10/27 09:16:22;;;;;;;1.77;1.20;;;;;;;-149.78;100.00;50330.63;5060718;28;20064;-75
2021/10/27 10:06:26;;;;;;;1.90;1.20;;;;;;;-149.78;100.00;50283.69;5064106;28;20048;-77
2021/10/27 10:09:13;;;;;;;3.42;1.13;;;;;;;-149.78;100.00;50293.47;5064896;28;20052;-77
2021/10/27 10:11:57;;;;;;;2.33;1.20;;;;;;;-149.78;100.00;50330.63;5064079;28;20108;-75
2021/10/27 10:14:47;;;;;;;4.03;1.42;;;;;;;-149.78;100.00;50299.34;5065969;28;20051;-75
2021/10/27 10:17:34;;;;;;;1.88;1.30;;;;;;;-149.78;100.00;50328.69;5065390;28;20121;-77
2021/10/27 10:20:20;;;;;;;2.75;1.35;;;;;;;-149.78;100.00;50287.59;5067356;28;20043;-76
2021/10/27 10:23:18;;;;;;;4.97;1.90;;;;;;;-149.78;100.00;50271.97;5061423;28;20047;-77
2021/10/27 10:26:07;;;;;;;2.35;1.20;;;;;;;-149.78;100.00;50295.44;5059569;28;20400;-76
2021/10/27 10:28:51;;;;;;;7.38;1.67;;;;;;;-149.78;100.00;50270.00;5062248;28;20062;-79
2021/10/27 10:31:37;;;;;;;2.25;1.20;;;;;;;-149.78;100.00;50273.91;5063593;28;20495;-76
2021/10/27 10:34:57;;;;;;;2.50;1.20;;;;;;;-149.78;100.00;50287.59;5062553;28;20087;-76
2021/10/27 10:41:11;;;;;;;3.13;1.13;;;;;;;-149.78;100.00;50295.44;5068688;28;20051;-78
2021/10/27 11:24:12;;;;;;;4.30;1.40;;;;;;;-149.78;100.00;50271.97;5057192;28;20526;-72
2021/10/27 11:27:55;;;;;;;6.05;1.40;;;;;;;-149.78;100.00;50287.59;5070816;28;20093;-74
2021/10/27 11:42:38;;;;;;;3.00;1.65;;;;;;;-149.78;100.00;50291.50;5062896;28;20082;-71
2021/10/27 11:48:24;;;;;;;3.80;1.33;;;;;;;-149.78;100.00;50314.97;5058738;28;20045;-71
2021/10/27 11:50:50;;;;;;;3.78;1.73;;;;;;;-149.78;100.00;50238.72;5058180;28;20105;-70
2021/10/27 11:53:22;;;;;;;3.50;1.50;;;;;;;-149.78;100.00;50295.44;5063315;28;20512;-70
2021/10/27 11:55:48;;;;;;;2.72;1.48;;;;;;;-149.78;100.00;50285.66;5049080;28;20039;-70
2021/10/27 11:58:14;;;;;;;4.25;1.40;;;;;;;-149.78;100.00;50293.47;5065545;28;20032;-71
2021/10/27 12:00:50;;;;;;;3.45;1.80;;;;;;;-149.78;100.00;50291.50;5071743;28;20036;-70
2021/10/27 12:03:18;;;;;;;3.40;1.80;;;;;;;-149.78;100.00;50268.03;5063864;28;20083;-71
2021/10/27 12:08:29;;;;;;;2.10;1.60;;;;;;;-149.78;100.00;50303.25;5062012;28;20029;-70
2021/10/27 12:11:13;;;;;;;2.15;1.35;;;;;;;-149.78;100.00;50271.97;5064694;28;20090;-70
2021/10/27 12:19:13;;;;;;;2.58;1.60;;;;;;;-149.78;100.00;50270.00;5063669;28;20052;-73
2021/10/27 12:21:47;;;;;;;3.38;1.75;;;;;;;-149.78;100.00;50268.03;5070271;28;20029;-73
2021/10/27 12:24:18;;;;;;;2.92;1.50;;;;;;;-149.78;100.00;50273.91;5063718;28;20033;-72
2021/10/27 12:26:47;;;;;;;4.88;1.70;;;;;;;-149.78;100.00;50266.09;5065915;28;20043;-72
2021/10/27 12:29:27;;;;;;;2.50;1.60;;;;;;;-149.78;100.00;50283.69;5061903;28;20033;-72
2021/10/27 12:32:07;;;;;;;5.03;1.77;;;;;;;-149.78;100.00;50307.16;5068774;28;20044;-72
2021/10/27 12:34:55;;;;;;;4.50;2.42;;;;;;;-149.78;100.00;50279.78;5058846;28;20021;-72
2021/10/27 12:37:53;;;;;;;4.63;1.70;;;;;;;-149.78;100.00;50295.44;5064995;28;20449;-73
2021/10/27 12:40:28;;;;;;;3.22;1.48;;;;;;;-149.78;100.00;50287.59;5067815;28;20044;-73
2021/10/27 12:43:00;;;;;;;4.50;1.50;;;;;;;-149.78;100.00;50295.44;5053600;28;20040;-73
2021/10/27 12:45:51;;;;;;;11.55;2.35;;;;;;;-149.78;100.00;50283.69;5076620;28;20491;-72
2021/10/27 12:48:19;;;;;;;3.17;1.67;;;;;;;-149.78;100.00;50225.03;5057881;28;20063;-73
2021/10/27 12:50:55;;;;;;;5.38;2.22;;;;;;;-149.78;100.00;50279.78;5060744;28;20527;-73
2021/10/27 12:53:35;;;;;;;2.92;1.63;;;;;;;-149.78;100.00;50285.66;5073966;28;20021;-72
2021/10/27 12:56:17;;;;;;;2.08;1.50;;;;;;;-149.78;100.00;50299.34;5066241;28;20338;-73
2021/10/27 12:58:50;;;;;;;2.90;1.67;;;;;;;-149.78;100.00;50287.59;5062674;28;20036;-72
2021/10/27 13:01:28;;;;;;;3.15;2.00;;;;;;;-149.78;100.00;50275.88;5055218;28;20056;-72
2021/10/27 13:04:22;;;;;;;2.85;1.20;;;;;;;-149.78;100.00;50252.41;5057692;28;20029;-73
2021/10/27 13:30:33;;;;;;;2.47;1.75;;;;;;;-149.78;100.00;50252.41;5054662;28;20039;-73
2021/10/27 13:33:02;;;;;;;6.03;1.92;;;;;;;-149.78;100.00;50287.59;5077155;28;20350;-72
2021/10/27 13:35:28;;;;;;;6.53;2.08;;;;;;;-149.78;100.00;50225.03;5058633;28;20025;-71
2021/10/27 13:37:54;;;;;;;2.20;1.80;;;;;;;-149.78;100.00;50303.25;5062677;28;20033;-71
2021/10/27 13:40:21;;;;;;;4.38;2.13;;;;;;;-149.78;100.00;50279.78;5068278;28;20055;-71
2021/10/27 13:59:11;;;;;;;4.53;2.47;;;;;;;-149.78;100.00;50260.22;5084800;28;20432;-71
2021/10/27 14:12:20;;;;;;;5.80;2.70;;;;;;;-149.78;100.00;50248.50;5060820;28;20047;-73
2021/10/27 14:14:58;;;;;;;6.20;2.33;;;;;;;-149.78;100.00;50248.50;5039000;28;20037;-73
2021/10/27 14:17:48;;;;;;;4.38;2.30;;;;;;;-149.78;100.00;50226.97;5053937;28;20048;-72
2021/10/27 14:48:02;;;;;;;4.55;2.03;;;;;;;-149.78;100.00;50279.78;5067700;28;20105;-71
2021/10/27 14:50:47;;;;;;;5.32;2.15;;;;;;;-149.78;100.00;50240.66;5061393;28;20029;-70
2021/10/27 15:19:34;;;;;;;3.20;1.88;;;;;;;-149.78;100.00;50226.97;5065600;28;20357;-71
2021/10/27 15:20:50;;;;;;;2.75;1.98;;;;;;;-149.78;100.00;50283.69;5061197;28;20033;-73
2021/10/27 15:23:23;;;;;;;4.00;2.08;;;;;;;-149.78;100.00;50283.69;5052185;28;20033;-73
2021/10/27 15:36:11;;;;;;;5.75;2.50;;;;;;;-149.78;100.00;50244.59;5056028;28;20518;-73
2021/10/27 15:41:55;;;;;;;4.32;2.35;;;;;;;-149.78;100.00;50248.50;5060791;28;20064;-71
2021/10/27 15:44:20;;;;;;;3.72;2.08;;;;;;;-149.78;100.00;50240.66;5054141;28;20195;-71
2021/10/27 15:52:20;;;;;;;7.03;2.00;;;;;;;-149.78;100.00;50283.69;5065007;28;20436;-72
2021/10/27 15:54:46;;;;;;;6.37;2.20;;;;;;;-149.78;100.00;50275.88;5035545;28;20046;-71
2021/10/27 15:57:13;;;;;;;2.88;1.90;;;;;;;-149.78;100.00;50311.06;5060711;28;20544;-71
2021/10/27 15:59:39;;;;;;;2.53;1.83;;;;;;;-149.78;100.00;50314.97;5066021;28;20487;-71
2021/10/27 16:02:24;;;;;;;4.53;2.47;;;;;;;-149.78;100.00;50234.81;5067816;28;20063;-71
2021/10/27 16:05:08;;;;;;;4.22;1.80;;;;;;;-149.78;100.00;50271.97;5068180;28;20136;-71
2021/10/27 16:07:54;;;;;;;2.65;1.90;;;;;;;-149.78;100.00;50279.78;5067668;28;20059;-71